Time;durP1;ratioP1;P1;durP2;ratioP2;P2;SDS_P1;SDS_P2;PMS_P1;PMS_P2;Temp;Humidity;BMP_temperature;BMP_pressure;BME280_temperature;BME280_humidity;BME280_pressure;Samples;Min_cycle;Max_cycle;Signal;HPM_P1;HPM_P2
2021/04/02 00:01:48;;;;;;;1.40;0.73;;;19.50;50.30;;;;;;4882249;29;20228;-65
2021/04/02 00:04:14;;;;;;;3.83;1.05;;;19.50;50.30;;;;;;4899683;29;20177;-66
2021/04/02 00:06:39;;;;;;;2.63;1.10;;;19.50;50.30;;;;;;4899175;29;20232;-69
2021/04/02 00:09:05;;;;;;;1.25;0.93;;;19.50;50.30;;;;;;4866747;29;20187;-68
2021/04/02 00:11:30;;;;;;;1.67;1.20;;;19.50;50.30;;;;;;4882618;29;20267;-68
2021/04/02 00:13:56;;;;;;;1.35;0.93;;;19.50;50.30;;;;;;4867241;29;20177;-68
2021/04/02 00:16:22;;;;;;;2.05;1.00;;;19.40;50.30;;;;;;4898482;29;20629;-67
2021/04/02 00:18:47;;;;;;;1.80;0.73;;;19.40;50.30;;;;;;4882596;29;20180;-66
2021/04/02 00:21:14;;;;;;;1.35;0.98;;;19.40;50.40;;;;;;4867297;29;20199;-66
2021/04/02 00:23:40;;;;;;;1.20;0.90;;;19.40;50.40;;;;;;4898422;29;20227;-66
2021/04/02 00:26:14;;;;;;;1.17;0.90;;;19.40;50.30;;;;;;4851542;29;20220;-70
2021/04/02 00:28:39;;;;;;;1.85;1.20;;;19.40;50.40;;;;;;4898785;29;20267;-65
2021/04/02 00:31:05;;;;;;;1.13;0.85;;;19.40;50.40;;;;;;4898553;29;20255;-69
2021/04/02 00:33:32;;;;;;;1.48;0.98;;;19.40;50.40;;;;;;4882142;29;20260;-67
2021/04/02 00:36:00;;;;;;;3.05;1.10;;;19.40;50.50;;;;;;4882332;29;20212;-71
2021/04/02 00:38:26;;;;;;;1.95;0.95;;;19.40;50.40;;;;;;4881495;29;20260;-67
2021/04/02 00:40:54;;;;;;;1.05;0.82;;;19.40;50.40;;;;;;4898798;29;20260;-68
2021/04/02 00:43:25;;;;;;;1.42;0.98;;;19.40;50.40;;;;;;4881728;29;20187;-67
2021/04/02 00:45:51;;;;;;;1.42;0.93;;;19.40;50.40;;;;;;4882475;29;20265;-65
2021/04/02 00:48:16;;;;;;;2.05;0.73;;;19.30;50.40;;;;;;4898943;29;20181;-66
2021/04/02 00:50:54;;;;;;;1.20;0.85;;;19.30;50.30;;;;;;4897938;29;20239;-66
2021/04/02 00:53:20;;;;;;;3.22;0.98;;;19.30;50.40;;;;;;4882870;29;20542;-66
2021/04/02 00:55:46;;;;;;;1.75;0.80;;;19.30;50.50;;;;;;4881945;29;20181;-66
2021/04/02 00:58:14;;;;;;;1.08;1.05;;;19.30;50.40;;;;;;4897987;29;20184;-67
2021/04/02 01:00:40;;;;;;;2.15;0.80;;;19.30;50.40;;;;;;4881595;29;20211;-66
2021/04/02 01:03:06;;;;;;;1.58;1.10;;;19.30;50.40;;;;;;4898542;29;20270;-66
2021/04/02 01:05:34;;;;;;;0.80;0.80;;;19.30;50.50;;;;;;4865305;29;20219;-67
2021/04/02 01:08:04;;;;;;;1.60;1.00;;;19.30;50.50;;;;;;4866014;29;20319;-68
2021/04/02 01:10:31;;;;;;;1.10;1.00;;;19.30;50.50;;;;;;4865942;29;20538;-68
2021/04/02 01:12:56;;;;;;;2.83;1.05;;;19.30;50.50;;;;;;4897735;29;20684;-68
2021/04/02 01:15:42;;;;;;;1.65;0.90;;;19.30;50.50;;;;;;4897915;29;20256;-67
2021/04/02 01:18:40;;;;;;;0.80;0.80;;;19.30;50.50;;;;;;4881561;29;20184;-66
2021/04/02 01:21:29;;;;;;;1.85;1.10;;;19.20;50.40;;;;;;4859801;29;20324;-68
2021/04/02 01:24:00;;;;;;;1.30;0.80;;;19.20;50.50;;;;;;4881369;29;20212;-66
2021/04/02 01:26:50;;;;;;;0.88;0.68;;;19.20;50.40;;;;;;4897206;29;20304;-66
2021/04/02 01:29:32;;;;;;;1.02;0.93;;;19.20;50.40;;;;;;4898208;29;20276;-68
2021/04/02 01:31:59;;;;;;;1.30;0.80;;;19.20;50.50;;;;;;4897950;29;20180;-66
2021/04/02 01:34:34;;;;;;;1.00;0.77;;;19.20;50.40;;;;;;4880480;29;20177;-68
2021/04/02 01:37:12;;;;;;;1.02;0.80;;;19.20;50.50;;;;;;4866811;29;20180;-68
2021/04/02 01:39:40;;;;;;;0.98;0.70;;;19.20;50.50;;;;;;4865197;29;20169;-68
2021/04/02 01:42:06;;;;;;;1.35;0.60;;;19.20;50.50;;;;;;4865230;29;20172;-66
2021/04/02 01:44:33;;;;;;;1.55;0.88;;;19.20;50.50;;;;;;4865430;29;20180;-68
2021/04/02 01:46:59;;;;;;;1.45;0.98;;;19.20;50.60;;;;;;4880773;29;20281;-66
2021/04/02 01:49:25;;;;;;;2.40;1.10;;;19.10;50.60;;;;;;4865469;29;20200;-71
2021/04/02 01:51:50;;;;;;;1.60;1.13;;;19.10;50.50;;;;;;4865718;29;20659;-65
2021/04/02 01:54:16;;;;;;;1.20;0.75;;;19.10;51.10;;;;;;4849550;29;20176;-67
2021/04/02 01:56:41;;;;;;;1.05;0.60;;;19.10;50.50;;;;;;4865421;29;20223;-70
2021/04/02 01:59:07;;;;;;;1.00;0.93;;;19.10;50.50;;;;;;4865367;29;20212;-68
2021/04/02 02:01:38;;;;;;;1.30;1.13;;;19.10;50.40;;;;;;4864824;29;20208;-67
2021/04/02 02:04:04;;;;;;;1.30;0.60;;;19.10;50.50;;;;;;4865477;29;20180;-67
2021/04/02 02:06:30;;;;;;;1.55;0.70;;;19.10;50.50;;;;;;4865255;29;20338;-68
2021/04/02 02:08:56;;;;;;;0.93;0.70;;;19.10;50.60;;;;;;4864932;29;20208;-68
2021/04/02 02:11:22;;;;;;;2.05;0.93;;;19.10;50.60;;;;;;4880608;29;20232;-69
2021/04/02 02:13:54;;;;;;;1.63;0.80;;;19.10;50.60;;;;;;4865506;29;20180;-69
2021/04/02 02:16:21;;;;;;;1.75;1.08;;;19.10;50.50;;;;;;4880034;29;20215;-68
2021/04/02 02:18:51;;;;;;;1.92;0.70;;;19.10;51.20;;;;;;4865598;29;20184;-68
2021/04/02 02:21:17;;;;;;;1.85;0.90;;;19.00;50.50;;;;;;4866055;29;20211;-67
2021/04/02 02:23:43;;;;;;;1.02;0.80;;;19.00;50.50;;;;;;4864696;29;20207;-66
2021/04/02 02:26:09;;;;;;;0.57;0.52;;;19.00;50.50;;;;;;4880732;29;20215;-66
2021/04/02 02:28:34;;;;;;;2.10;0.60;;;19.00;50.50;;;;;;4880452;29;20173;-66
2021/04/02 02:31:00;;;;;;;1.15;0.70;;;19.00;50.50;;;;;;4896798;29;20184;-70
2021/04/02 02:33:27;;;;;;;1.27;0.90;;;19.00;50.60;;;;;;4865154;29;20204;-67
2021/04/02 02:35:53;;;;;;;1.35;0.70;;;19.00;50.60;;;;;;4864860;29;20236;-67
2021/04/02 02:38:19;;;;;;;0.50;0.50;;;19.00;50.60;;;;;;4880671;29;20175;-67
2021/04/02 02:40:45;;;;;;;1.15;0.90;;;19.00;50.50;;;;;;4865307;29;20336;-71
2021/04/02 02:43:10;;;;;;;2.53;0.90;;;19.00;50.50;;;;;;4849178;29;20285;-68
2021/04/02 02:45:36;;;;;;;0.93;0.80;;;19.00;50.50;;;;;;4896876;29;20644;-65
2021/04/02 02:48:02;;;;;;;2.25;0.70;;;19.00;50.60;;;;;;4897203;29;20180;-65
2021/04/02 02:50:32;;;;;;;2.42;0.80;;;19.00;50.60;;;;;;4879647;29;20180;-66
2021/04/02 02:53:00;;;;;;;1.40;0.80;;;19.00;50.60;;;;;;4866383;29;20260;-66
2021/04/02 02:55:27;;;;;;;0.80;0.80;;;18.90;50.60;;;;;;4868712;29;20259;-67
2021/04/02 02:57:53;;;;;;;1.60;0.80;;;18.90;50.60;;;;;;4868279;29;20180;-67
2021/04/02 03:00:21;;;;;;;0.88;0.73;;;18.90;50.60;;;;;;4883904;29;20165;-67
2021/04/02 03:02:48;;;;;;;1.23;0.80;;;18.90;50.50;;;;;;4868807;29;20176;-70
2021/04/02 03:05:16;;;;;;;0.73;0.73;;;18.90;50.60;;;;;;4867840;29;20197;-68
2021/04/02 03:07:41;;;;;;;0.80;0.80;;;18.90;50.60;;;;;;4868319;29;20228;-68
2021/04/02 03:10:09;;;;;;;1.75;0.73;;;18.90;50.60;;;;;;4883711;29;20189;-69
2021/04/02 03:12:35;;;;;;;1.25;0.70;;;18.90;50.70;;;;;;4867519;29;20193;-68
2021/04/02 03:15:01;;;;;;;1.27;0.95;;;18.90;51.20;;;;;;4868269;29;20640;-67
2021/04/02 03:17:26;;;;;;;0.82;0.73;;;18.80;50.60;;;;;;4883555;29;20547;-67
2021/04/02 03:19:52;;;;;;;1.42;0.90;;;18.90;50.60;;;;;;4867691;29;20569;-67
2021/04/02 03:22:18;;;;;;;0.57;0.57;;;18.90;50.60;;;;;;4868120;29;20175;-66
2021/04/02 03:24:43;;;;;;;1.60;0.70;;;18.80;51.20;;;;;;4867955;29;20236;-66
2021/04/02 03:27:09;;;;;;;0.75;0.70;;;18.80;50.60;;;;;;4867556;29;20679;-67
2021/04/02 03:29:34;;;;;;;0.63;0.50;;;18.80;50.60;;;;;;4883246;29;20188;-65
2021/04/02 03:32:07;;;;;;;0.52;0.50;;;18.80;50.60;;;;;;4868002;29;20271;-70
2021/04/02 03:34:33;;;;;;;1.45;0.93;;;18.80;50.60;;;;;;4868066;29;20180;-67
2021/04/02 03:36:59;;;;;;;1.10;0.70;;;18.80;50.60;;;;;;4868005;29;20169;-68
2021/04/02 03:39:29;;;;;;;0.60;0.60;;;18.80;50.60;;;;;;4867189;29;20186;-69
2021/04/02 03:41:54;;;;;;;0.77;0.77;;;18.80;50.60;;;;;;4867815;29;20172;-66
2021/04/02 03:44:25;;;;;;;1.23;0.85;;;18.80;50.60;;;;;;4867534;29;20709;-67
2021/04/02 03:46:51;;;;;;;1.15;0.90;;;18.80;50.60;;;;;;4867151;29;20220;-66
2021/04/02 03:49:21;;;;;;;1.15;0.85;;;18.80;50.60;;;;;;4867810;29;20245;-71
2021/04/02 03:51:46;;;;;;;1.67;0.80;;;18.80;50.70;;;;;;4852497;29;20614;-66
2021/04/02 03:54:12;;;;;;;1.10;0.80;;;18.80;50.60;;;;;;4866817;29;20263;-66
2021/04/02 03:56:38;;;;;;;1.73;0.95;;;18.70;50.60;;;;;;4899587;29;20212;-67
2021/04/02 03:59:04;;;;;;;0.82;0.70;;;18.70;51.20;;;;;;4899628;29;20264;-71
2021/04/02 04:01:32;;;;;;;0.80;0.73;;;18.70;50.60;;;;;;4866745;29;20272;-68
2021/04/02 04:03:59;;;;;;;0.77;0.50;;;18.70;50.60;;;;;;4882516;29;20201;-67
2021/04/02 04:06:24;;;;;;;0.98;0.88;;;18.70;50.60;;;;;;4851527;29;20592;-67
2021/04/02 04:08:58;;;;;;;1.05;0.75;;;18.70;50.70;;;;;;4882236;29;20183;-68
2021/04/02 04:11:25;;;;;;;0.80;0.80;;;18.70;50.60;;;;;;4867240;29;20603;-68
2021/04/02 04:13:52;;;;;;;1.63;0.95;;;18.70;50.60;;;;;;4899259;29;20608;-71
2021/04/02 04:16:21;;;;;;;0.75;0.55;;;18.70;50.60;;;;;;4882265;29;20173;-67
2021/04/02 04:18:47;;;;;;;1.15;0.60;;;18.60;50.60;;;;;;4882776;29;20207;-67
2021/04/02 04:21:13;;;;;;;0.88;0.63;;;18.70;50.70;;;;;;4866959;29;20606;-68
2021/04/02 04:23:38;;;;;;;1.60;0.77;;;18.60;50.60;;;;;;4866194;29;20216;-65
2021/04/02 04:26:04;;;;;;;1.08;0.63;;;18.70;50.70;;;;;;4882473;29;20205;-67
2021/04/02 04:28:29;;;;;;;1.20;0.77;;;18.60;50.60;;;;;;4881493;29;20633;-69
2021/04/02 04:30:58;;;;;;;0.60;0.60;;;18.60;50.60;;;;;;4866981;29;20184;-70
2021/04/02 04:33:25;;;;;;;1.20;0.75;;;18.60;50.60;;;;;;4882480;29;20165;-67
2021/04/02 04:35:50;;;;;;;0.68;0.60;;;18.60;50.60;;;;;;4850715;29;20568;-67
2021/04/02 04:38:16;;;;;;;1.35;0.88;;;18.60;50.70;;;;;;4851457;29;20652;-67
2021/04/02 04:40:41;;;;;;;0.93;0.77;;;18.60;50.60;;;;;;4882017;29;20180;-70
2021/04/02 04:43:07;;;;;;;0.82;0.50;;;18.60;50.70;;;;;;4898220;29;20224;-67
2021/04/02 04:45:33;;;;;;;0.75;0.55;;;18.60;50.70;;;;;;4866353;29;20212;-67
2021/04/02 04:47:58;;;;;;;1.10;0.60;;;18.60;50.70;;;;;;4866644;29;20180;-65
2021/04/02 04:50:24;;;;;;;1.33;0.88;;;18.60;50.70;;;;;;4865867;29;20177;-66
2021/04/02 04:53:06;;;;;;;0.60;0.60;;;18.60;50.70;;;;;;4866394;29;20182;-65
2021/04/02 04:55:32;;;;;;;1.15;0.82;;;18.60;50.70;;;;;;4883175;29;20183;-70
2021/04/02 04:57:57;;;;;;;0.93;0.50;;;18.60;50.70;;;;;;4865913;29;20188;-67
2021/04/02 05:00:23;;;;;;;1.55;0.57;;;18.50;50.60;;;;;;4866284;29;20180;-66
2021/04/02 05:02:48;;;;;;;2.22;0.70;;;18.60;50.70;;;;;;4866436;29;20173;-66
2021/04/02 05:05:29;;;;;;;0.70;0.63;;;18.60;50.70;;;;;;4850261;29;20263;-69
2021/04/02 05:07:55;;;;;;;0.90;0.55;;;18.50;50.70;;;;;;4882173;29;20231;-68
2021/04/02 05:10:21;;;;;;;1.30;0.85;;;18.50;50.70;;;;;;4866053;29;20172;-68
2021/04/02 05:12:47;;;;;;;0.90;0.57;;;18.50;50.70;;;;;;4881164;29;20173;-67
2021/04/02 05:15:14;;;;;;;0.95;0.80;;;18.50;50.70;;;;;;4880947;29;20176;-68
2021/04/02 05:17:40;;;;;;;0.77;0.77;;;18.50;50.70;;;;;;4865492;29;20181;-67
2021/04/02 05:20:06;;;;;;;2.10;0.90;;;18.50;50.70;;;;;;4881502;29;20547;-66
2021/04/02 05:22:31;;;;;;;0.90;0.60;;;18.50;50.70;;;;;;4865759;29;20204;-67
2021/04/02 05:24:57;;;;;;;0.60;0.60;;;18.50;50.70;;;;;;4897358;29;20180;-66
2021/04/02 05:27:23;;;;;;;2.22;1.00;;;18.50;50.70;;;;;;4881065;29;20175;-66
2021/04/02 05:29:48;;;;;;;0.80;0.68;;;18.50;50.60;;;;;;4898016;29;20248;-69
2021/04/02 05:32:14;;;;;;;0.73;0.50;;;18.40;50.60;;;;;;4880846;29;20637;-68
2021/04/02 05:34:39;;;;;;;0.82;0.65;;;18.50;50.70;;;;;;4865601;29;20191;-70
2021/04/02 05:37:05;;;;;;;0.75;0.60;;;18.40;50.60;;;;;;4897943;29;20188;-69
2021/04/02 05:39:30;;;;;;;0.90;0.80;;;18.40;50.60;;;;;;4897168;29;20177;-69
2021/04/02 05:42:00;;;;;;;0.50;0.50;;;18.40;50.60;;;;;;4897655;29;20311;-66
2021/04/02 05:44:27;;;;;;;1.13;0.77;;;18.40;50.60;;;;;;4865974;29;20189;-66
2021/04/02 05:46:52;;;;;;;1.65;0.70;;;18.40;50.60;;;;;;4865226;29;20212;-66
2021/04/02 05:49:20;;;;;;;0.95;0.50;;;18.40;50.60;;;;;;4897834;29;20188;-67
2021/04/02 05:51:46;;;;;;;1.48;0.80;;;18.40;50.60;;;;;;4866023;29;20172;-65
2021/04/02 05:54:12;;;;;;;0.65;0.65;;;18.40;50.60;;;;;;4849487;29;20183;-66
2021/04/02 05:56:37;;;;;;;0.85;0.63;;;18.40;50.60;;;;;;4865218;29;20181;-66
2021/04/02 05:59:03;;;;;;;0.95;0.90;;;18.40;50.50;;;;;;4850017;29;20191;-68
2021/04/02 06:01:29;;;;;;;1.02;0.70;;;18.40;50.60;;;;;;4849152;29;20187;-67
2021/04/02 06:03:54;;;;;;;1.08;0.80;;;18.40;50.60;;;;;;4880862;29;20172;-70
2021/04/02 06:06:20;;;;;;;1.75;0.70;;;18.30;50.60;;;;;;4849689;29;20596;-70
2021/04/02 06:08:46;;;;;;;1.63;0.90;;;18.40;50.70;;;;;;4880293;29;20648;-70
2021/04/02 06:11:11;;;;;;;1.05;0.70;;;18.30;50.60;;;;;;4865319;29;20589;-72
2021/04/02 06:13:38;;;;;;;0.77;0.60;;;18.30;50.60;;;;;;4880524;29;20204;-68
2021/04/02 06:16:04;;;;;;;1.10;0.95;;;18.30;50.60;;;;;;4880237;29;20175;-68
2021/04/02 06:18:29;;;;;;;1.48;1.00;;;18.30;50.60;;;;;;4897268;29;20255;-71
2021/04/02 06:20:55;;;;;;;1.17;0.70;;;18.30;50.50;;;;;;4849763;29;20689;-67
2021/04/02 06:23:25;;;;;;;0.60;0.60;;;18.30;50.50;;;;;;4864641;29;20543;-68
2021/04/02 06:25:52;;;;;;;1.45;0.80;;;18.30;50.50;;;;;;4897294;29;20212;-69
2021/04/02 06:28:21;;;;;;;0.98;0.60;;;18.30;50.50;;;;;;4900082;29;20283;-70
2021/04/02 06:31:05;;;;;;;1.30;0.68;;;18.30;50.50;;;;;;4885143;29;20259;-68
2021/04/02 06:33:42;;;;;;;0.60;0.50;;;18.30;50.40;;;;;;4885473;29;20169;-69
2021/04/02 06:36:15;;;;;;;0.65;0.52;;;18.30;50.40;;;;;;4869924;29;20180;-69
2021/04/02 06:38:43;;;;;;;0.80;0.60;;;18.40;50.50;;;;;;4900863;29;20180;-68
2021/04/02 06:41:09;;;;;;;1.13;0.68;;;18.40;50.40;;;;;;4901054;29;20633;-68
2021/04/02 06:43:43;;;;;;;3.00;0.95;;;18.40;50.40;;;;;;4867808;29;20176;-64
2021/04/02 06:46:10;;;;;;;1.92;0.80;;;18.40;50.30;;;;;;4900936;29;20243;-68
2021/04/02 06:48:36;;;;;;;2.35;0.77;;;18.40;50.30;;;;;;4868344;29;20702;-61
2021/04/02 06:51:01;;;;;;;2.83;0.60;;;18.50;50.30;;;;;;4900002;29;20185;-71
2021/04/02 06:53:27;;;;;;;0.90;0.80;;;18.50;50.20;;;;;;4868438;29;20303;-65
2021/04/02 06:55:53;;;;;;;0.93;0.65;;;18.50;50.10;;;;;;4868351;29;20637;-64
2021/04/02 06:58:18;;;;;;;2.35;0.90;;;18.50;50.10;;;;;;4883429;29;20516;-68
2021/04/02 07:00:44;;;;;;;1.25;0.60;;;18.60;50.10;;;;;;4868559;29;20228;-67
2021/04/02 07:03:09;;;;;;;1.58;0.80;;;18.60;50.00;;;;;;4867971;29;20172;-68
2021/04/02 07:05:35;;;;;;;3.33;1.00;;;18.60;50.00;;;;;;4868037;29;20676;-66
2021/04/02 07:08:04;;;;;;;2.10;0.68;;;18.60;50.00;;;;;;4868119;29;20224;-70
2021/04/02 07:10:29;;;;;;;2.65;1.05;;;18.70;50.00;;;;;;4882905;29;20219;-76
2021/04/02 07:12:56;;;;;;;1.45;0.88;;;18.60;49.90;;;;;;4868361;29;20658;-75
2021/04/02 07:15:21;;;;;;;2.90;0.70;;;18.70;50.00;;;;;;4883457;29;20268;-71
2021/04/02 07:17:48;;;;;;;2.10;0.80;;;18.70;49.80;;;;;;4867711;29;20263;-71
2021/04/02 07:20:14;;;;;;;3.55;1.10;;;18.80;49.90;;;;;;4868330;29;20216;-71
2021/04/02 07:22:40;;;;;;;2.75;0.82;;;18.80;49.80;;;;;;4883403;29;20227;-70
2021/04/02 07:25:10;;;;;;;1.17;0.70;;;18.80;49.80;;;;;;4899537;29;20215;-70
2021/04/02 07:27:36;;;;;;;5.07;0.95;;;18.90;49.90;;;;;;4852685;29;20560;-66
2021/04/02 07:30:03;;;;;;;2.00;0.80;;;18.90;49.80;;;;;;4900164;29;20183;-70
2021/04/02 07:32:29;;;;;;;3.50;0.98;;;18.90;49.70;;;;;;4867177;29;20177;-66
2021/04/02 07:34:55;;;;;;;3.17;1.00;;;19.00;49.70;;;;;;4867851;29;20527;-66
2021/04/02 07:37:20;;;;;;;2.47;0.70;;;19.00;49.90;;;;;;4867639;29;20176;-69
2021/04/02 07:39:47;;;;;;;1.75;0.70;;;19.00;49.80;;;;;;4866538;29;20202;-71
2021/04/02 07:42:12;;;;;;;1.30;0.80;;;19.10;49.70;;;;;;4883290;29;20183;-69
2021/04/02 07:44:45;;;;;;;2.78;0.80;;;19.10;49.80;;;;;;4883031;29;20180;-64
2021/04/02 07:47:11;;;;;;;1.63;0.68;;;19.10;49.70;;;;;;4867112;29;20217;-80
2021/04/02 07:49:47;;;;;;;2.33;0.98;;;19.20;49.80;;;;;;4882964;29;20177;-76
2021/04/02 07:52:12;;;;;;;2.35;0.70;;;19.10;49.80;;;;;;4883960;29;20237;-75
2021/04/02 07:54:41;;;;;;;2.38;0.70;;;19.10;49.90;;;;;;4882110;29;20184;-73
2021/04/02 07:57:14;;;;;;;1.25;0.70;;;19.10;50.00;;;;;;4883400;29;20200;-66
2021/04/02 07:59:43;;;;;;;1.50;0.68;;;19.00;50.00;;;;;;4882112;29;20175;-72
2021/04/02 08:02:28;;;;;;;1.80;0.90;;;19.00;50.20;;;;;;4882738;29;20203;-67
2021/04/02 08:04:56;;;;;;;1.58;0.68;;;19.00;50.20;;;;;;4882838;29;20173;-71
2021/04/02 08:07:33;;;;;;;1.27;0.75;;;19.00;50.30;;;;;;4881869;29;20231;-65
2021/04/02 08:10:00;;;;;;;2.13;0.70;;;19.00;50.40;;;;;;4882652;29;20172;-67
2021/04/02 08:12:26;;;;;;;3.78;0.85;;;19.00;50.50;;;;;;4882533;29;20532;-64
2021/04/02 08:14:51;;;;;;;2.30;0.77;;;19.00;50.50;;;;;;4866387;29;20181;-66
2021/04/02 08:17:23;;;;;;;1.48;0.80;;;19.00;50.60;;;;;;4882473;29;20169;-64
2021/04/02 08:19:49;;;;;;;1.70;0.80;;;19.00;50.60;;;;;;4882550;29;20177;-70
2021/04/02 08:22:18;;;;;;;1.75;0.68;;;19.00;50.70;;;;;;4866458;29;20169;-66
2021/04/02 08:24:47;;;;;;;1.35;0.70;;;19.00;50.70;;;;;;4882407;29;20173;-68
2021/04/02 08:27:14;;;;;;;3.30;0.70;;;19.00;50.70;;;;;;4898611;29;20228;-65
2021/04/02 08:29:41;;;;;;;1.83;0.77;;;19.10;50.80;;;;;;4881526;29;20205;-64
2021/04/02 08:32:08;;;;;;;3.20;1.00;;;19.00;50.70;;;;;;4882372;29;20232;-65
2021/04/02 08:34:34;;;;;;;2.05;0.90;;;19.00;50.70;;;;;;4881769;29;20238;-66
2021/04/02 08:37:05;;;;;;;1.45;1.00;;;19.00;50.70;;;;;;4882019;29;20188;-68
2021/04/02 08:39:30;;;;;;;1.85;0.47;;;19.00;50.70;;;;;;4866589;29;20307;-67
2021/04/02 08:42:04;;;;;;;1.15;0.68;;;19.00;50.70;;;;;;4865908;29;20237;-63
2021/04/02 08:44:38;;;;;;;2.95;0.80;;;19.00;50.80;;;;;;4866402;29;20574;-65
2021/04/02 08:47:04;;;;;;;4.00;0.82;;;19.00;50.70;;;;;;4867019;29;20212;-64
2021/04/02 08:49:52;;;;;;;1.55;0.82;;;19.00;50.80;;;;;;4865610;29;20181;-66
2021/04/02 08:52:25;;;;;;;1.40;0.90;;;19.00;50.80;;;;;;4882453;29;20649;-76
2021/04/02 08:54:55;;;;;;;1.85;0.85;;;19.00;50.80;;;;;;4867220;29;20633;-69
2021/04/02 08:57:23;;;;;;;1.33;0.77;;;19.00;50.80;;;;;;4865807;29;20201;-76
2021/04/02 08:59:48;;;;;;;1.90;0.95;;;18.90;51.00;;;;;;4898511;29;20173;-66
2021/04/02 09:02:14;;;;;;;3.22;1.05;;;18.90;51.00;;;;;;4881909;29;20253;-65
2021/04/02 09:04:44;;;;;;;1.65;1.10;;;18.90;51.10;;;;;;4865447;29;20180;-65
2021/04/02 09:07:10;;;;;;;1.48;0.80;;;18.90;51.10;;;;;;4881333;29;20323;-65
2021/04/02 09:09:39;;;;;;;2.55;0.90;;;18.90;51.00;;;;;;4866040;29;20232;-67
2021/04/02 09:12:09;;;;;;;1.73;0.93;;;18.80;50.90;;;;;;4881044;29;20176;-66
2021/04/02 09:14:40;;;;;;;2.17;0.85;;;18.80;51.00;;;;;;4865883;29;20588;-66
2021/04/02 09:17:06;;;;;;;3.35;0.90;;;18.80;51.00;;;;;;4880800;29;20295;-71
2021/04/02 09:19:32;;;;;;;1.95;1.00;;;18.80;51.00;;;;;;4865693;29;20267;-71
2021/04/02 09:21:58;;;;;;;4.43;0.85;;;18.80;51.00;;;;;;4866001;29;20268;-66
2021/04/02 09:24:23;;;;;;;1.25;0.65;;;18.80;51.00;;;;;;4865061;29;20255;-71
2021/04/02 09:26:49;;;;;;;2.47;0.95;;;18.80;51.00;;;;;;4865930;29;20208;-70
2021/04/02 09:29:15;;;;;;;2.38;1.00;;;18.80;51.00;;;;;;4865965;29;20645;-70
2021/04/02 09:31:42;;;;;;;3.80;0.60;;;18.80;51.00;;;;;;4865146;29;20177;-72
2021/04/02 09:34:16;;;;;;;3.50;1.00;;;18.80;51.00;;;;;;4881036;29;20318;-68
2021/04/02 09:36:42;;;;;;;1.05;0.70;;;18.80;51.00;;;;;;4866583;29;20184;-66
2021/04/02 09:39:11;;;;;;;2.22;0.95;;;18.80;51.00;;;;;;4880612;29;20184;-70
2021/04/02 09:41:38;;;;;;;1.80;0.80;;;18.80;51.10;;;;;;4897519;29;20232;-69
2021/04/02 09:44:09;;;;;;;1.65;0.80;;;18.80;51.00;;;;;;4880966;29;20267;-63
2021/04/02 09:46:38;;;;;;;2.13;0.80;;;18.80;51.10;;;;;;4849512;29;20224;-64
2021/04/02 09:49:11;;;;;;;1.90;0.90;;;18.80;51.70;;;;;;4881088;29;20223;-64
2021/04/02 09:51:41;;;;;;;1.83;1.05;;;18.80;51.10;;;;;;4880737;29;20235;-64
2021/04/02 09:54:07;;;;;;;3.63;1.15;;;18.80;51.00;;;;;;4905877;29;20172;-64
2021/04/02 09:56:32;;;;;;;1.02;0.85;;;18.80;51.00;;;;;;4903588;29;20707;-65
2021/04/02 09:58:58;;;;;;;1.73;0.90;;;18.80;51.10;;;;;;4880492;29;20541;-66
2021/04/02 10:01:24;;;;;;;2.25;1.08;;;18.80;51.10;;;;;;4913830;29;20663;-67
2021/04/02 10:03:50;;;;;;;2.03;0.90;;;18.80;51.10;;;;;;4916383;29;20180;-65
2021/04/02 10:06:15;;;;;;;3.03;1.52;;;18.80;51.00;;;;;;4914590;29;20576;-64
2021/04/02 10:08:41;;;;;;;2.30;0.88;;;18.80;50.90;;;;;;4907086;29;20232;-69
2021/04/02 10:11:06;;;;;;;1.27;0.98;;;18.80;50.90;;;;;;4897386;29;20172;-69
2021/04/02 10:13:32;;;;;;;1.83;0.90;;;18.90;50.80;;;;;;4879883;29;20211;-69
2021/04/02 10:15:58;;;;;;;1.55;0.95;;;18.90;50.80;;;;;;4880580;29;20200;-64
2021/04/02 10:18:24;;;;;;;1.88;1.08;;;18.90;50.90;;;;;;4864824;29;20259;-64
2021/04/02 10:20:49;;;;;;;2.22;0.80;;;18.90;50.80;;;;;;4879940;29;20540;-64
2021/04/02 10:23:16;;;;;;;1.88;1.13;;;18.90;50.80;;;;;;4880627;29;20181;-61
2021/04/02 10:25:42;;;;;;;2.28;1.27;;;18.80;50.90;;;;;;4903772;29;20684;-77
2021/04/02 10:28:07;;;;;;;2.25;0.80;;;18.90;50.80;;;;;;4915714;29;20183;-65
2021/04/02 10:30:33;;;;;;;2.33;1.00;;;18.90;50.80;;;;;;4916032;29;20176;-64
2021/04/02 10:32:58;;;;;;;2.40;0.90;;;18.90;50.70;;;;;;4915151;29;20188;-66
2021/04/02 10:35:26;;;;;;;2.65;1.25;;;19.00;50.70;;;;;;4913969;29;20724;-70
2021/04/02 10:37:53;;;;;;;2.00;1.08;;;18.90;50.70;;;;;;4914526;29;20188;-70
2021/04/02 10:40:19;;;;;;;2.63;1.17;;;19.00;50.70;;;;;;4914423;29;20168;-65
2021/04/02 10:42:44;;;;;;;3.67;1.13;;;19.00;50.70;;;;;;4914210;29;20242;-66
2021/04/02 10:45:10;;;;;;;1.67;0.80;;;18.90;50.70;;;;;;4915695;29;20309;-72
2021/04/02 10:47:36;;;;;;;1.85;1.02;;;18.90;50.80;;;;;;4914705;29;20315;-69
2021/04/02 10:50:02;;;;;;;2.22;1.00;;;19.00;51.30;;;;;;4915276;29;20275;-61
2021/04/02 10:52:27;;;;;;;4.32;1.58;;;19.10;50.40;;;;;;4916032;29;20192;-69
2021/04/02 10:54:53;;;;;;;2.65;1.10;;;19.10;50.40;;;;;;4915689;29;20172;-70
2021/04/02 10:57:18;;;;;;;3.10;1.10;;;19.10;51.10;;;;;;4915101;29;20180;-63
2021/04/02 10:59:44;;;;;;;2.95;1.15;;;19.10;50.50;;;;;;4908351;29;20200;-72
2021/04/02 11:02:10;;;;;;;2.95;1.30;;;19.10;50.50;;;;;;4896998;29;20172;-70
2021/04/02 11:04:35;;;;;;;1.83;0.75;;;19.00;50.50;;;;;;4895989;29;20180;-71
2021/04/02 11:07:01;;;;;;;2.28;1.23;;;19.00;50.50;;;;;;4896838;29;20293;-61
2021/04/02 11:09:26;;;;;;;1.27;1.10;;;19.00;50.50;;;;;;4896140;29;20173;-66
2021/04/02 11:11:52;;;;;;;4.50;1.38;;;19.00;50.50;;;;;;4880167;29;20212;-66
2021/04/02 11:14:17;;;;;;;2.25;1.20;;;19.00;50.50;;;;;;4881592;29;20183;-66
2021/04/02 11:16:43;;;;;;;3.20;1.35;;;19.00;50.50;;;;;;4882874;29;20181;-67
2021/04/02 11:19:09;;;;;;;1.80;0.80;;;19.10;50.40;;;;;;4883461;29;20193;-66
2021/04/02 11:21:34;;;;;;;1.98;1.00;;;19.20;50.40;;;;;;4867777;29;20175;-66
2021/04/02 11:24:00;;;;;;;1.42;0.90;;;19.20;50.40;;;;;;4882775;29;20176;-66
2021/04/02 11:26:25;;;;;;;2.15;1.10;;;19.20;50.90;;;;;;4883327;29;20208;-67
2021/04/02 11:28:51;;;;;;;1.88;1.20;;;19.20;50.40;;;;;;4883455;29;20251;-67
2021/04/02 11:31:18;;;;;;;3.08;1.27;;;19.20;50.40;;;;;;4882920;29;20629;-67
2021/04/02 11:33:44;;;;;;;2.22;0.95;;;19.20;50.30;;;;;;4868014;29;20243;-73
2021/04/02 11:36:10;;;;;;;2.03;1.52;;;19.30;50.30;;;;;;4867612;29;20180;-73
2021/04/02 11:38:36;;;;;;;3.65;1.45;;;19.30;50.30;;;;;;4866746;29;20180;-71
2021/04/02 11:41:03;;;;;;;2.55;1.10;;;19.30;50.30;;;;;;4883032;29;20577;-74
2021/04/02 11:43:28;;;;;;;2.55;1.30;;;19.20;50.30;;;;;;4883215;29;20548;-73
2021/04/02 11:45:54;;;;;;;3.80;1.67;;;19.20;50.30;;;;;;4882487;29;20216;-74
2021/04/02 11:48:19;;;;;;;2.40;1.00;;;19.20;50.40;;;;;;4882917;29;20199;-72
2021/04/02 11:50:45;;;;;;;4.07;1.27;;;19.20;50.40;;;;;;4867465;29;20188;-73
2021/04/02 11:53:10;;;;;;;2.83;1.90;;;19.20;50.40;;;;;;4882329;29;20233;-72
2021/04/02 11:55:36;;;;;;;2.75;1.35;;;19.20;50.40;;;;;;4899329;29;20724;-72
2021/04/02 11:58:02;;;;;;;2.03;1.20;;;19.20;50.40;;;;;;4883039;29;20193;-67
2021/04/02 12:00:28;;;;;;;2.42;1.10;;;19.20;50.20;;;;;;4882034;29;20187;-67
2021/04/02 12:02:54;;;;;;;5.80;1.33;;;19.20;50.30;;;;;;4899550;29;20173;-66
2021/04/02 12:05:23;;;;;;;1.45;1.15;;;19.20;50.10;;;;;;4882307;29;20580;-66
2021/04/02 12:07:49;;;;;;;3.10;1.10;;;19.20;50.00;;;;;;4898605;29;20283;-66
2021/04/02 12:10:15;;;;;;;2.95;1.17;;;19.20;49.80;;;;;;4899445;29;20177;-66
2021/04/02 12:12:40;;;;;;;2.17;1.20;;;19.20;49.80;;;;;;4881747;29;20238;-65
2021/04/02 12:15:07;;;;;;;1.73;0.95;;;19.10;49.60;;;;;;4882465;29;20247;-65
2021/04/02 12:17:32;;;;;;;3.20;0.98;;;19.10;49.60;;;;;;4898930;29;20664;-66
2021/04/02 12:19:58;;;;;;;2.55;1.23;;;19.20;49.70;;;;;;4898543;29;20232;-66
2021/04/02 12:22:23;;;;;;;2.13;1.30;;;19.10;49.60;;;;;;4899123;29;20185;-65
2021/04/02 12:24:49;;;;;;;2.92;1.30;;;19.20;49.60;;;;;;4882122;29;20184;-65
2021/04/02 12:27:15;;;;;;;3.22;0.98;;;19.10;49.50;;;;;;4898565;29;20259;-66
2021/04/02 12:29:40;;;;;;;4.47;1.30;;;19.10;49.50;;;;;;4898921;29;20204;-67
2021/04/02 12:32:06;;;;;;;3.72;1.77;;;19.10;49.60;;;;;;4897960;29;20172;-66
2021/04/02 12:34:32;;;;;;;2.30;0.90;;;19.10;49.70;;;;;;4898189;29;20177;-66
2021/04/02 12:36:58;;;;;;;2.47;1.20;;;19.00;49.80;;;;;;4882242;29;20176;-66
2021/04/02 12:39:25;;;;;;;2.20;1.30;;;19.00;49.80;;;;;;4881807;29;20180;-65
2021/04/02 12:41:50;;;;;;;2.67;1.13;;;19.00;49.80;;;;;;4881014;29;20176;-66
2021/04/02 12:44:16;;;;;;;1.90;1.20;;;19.00;49.90;;;;;;4882034;29;20356;-66
2021/04/02 12:46:41;;;;;;;2.67;1.20;;;19.00;49.90;;;;;;4897366;29;20216;-67
2021/04/02 12:49:07;;;;;;;2.40;1.20;;;19.00;50.60;;;;;;4881424;29;20722;-67